Time;durP1;ratioP1;P1;durP2;ratioP2;P2;SDS_P1;SDS_P2;PMS_P1;PMS_P2;Temp;Humidity;BMP_temperature;BMP_pressure;BME280_temperature;BME280_humidity;BME280_pressure;Samples;Min_cycle;Max_cycle;Signal;HPM_P1;HPM_P2
2021/05/22 00:01:16;;;;;;;;;;;;;;;9.57;78.22;99364.41;3456227;28;19964;-42
2021/05/22 00:02:58;;;;;;;;;;;;;;;9.56;78.40;99365.25;3455685;28;19930;-42
2021/05/22 00:04:39;;;;;;;;;;;;;;;9.54;78.07;99357.47;3455822;28;20449;-46
2021/05/22 00:06:20;;;;;;;;;;;;;;;9.53;78.63;99363.50;3454635;28;19972;-46
2021/05/22 00:08:01;;;;;;;;;;;;;;;9.50;78.78;99364.31;3456305;28;19936;-46
2021/05/22 00:09:45;;;;;;;;;;;;;;;9.47;78.55;99360.81;3456632;28;20052;-41
2021/05/22 00:11:26;;;;;;;;;;;;;;;9.43;78.57;99365.09;3456159;28;19929;-45
2021/05/22 00:13:07;;;;;;;;;;;;;;;9.40;78.47;99366.75;3453076;28;19930;-45
2021/05/22 00:14:48;;;;;;;;;;;;;;;9.36;78.73;99363.25;3455143;28;19930;-45
2021/05/22 00:16:30;;;;;;;;;;;;;;;9.35;78.91;99357.19;3455638;28;19933;-45
2021/05/22 00:18:11;;;;;;;;;;;;;;;9.35;79.20;99359.78;3455163;28;20545;-45
2021/05/22 00:19:52;;;;;;;;;;;;;;;9.36;79.41;99352.88;3455838;28;19929;-46
2021/05/22 00:21:33;;;;;;;;;;;;;;;9.35;79.43;99357.19;3454731;28;19934;-45
2021/05/22 00:23:15;;;;;;;;;;;;;;;9.35;79.53;99356.34;3456459;28;19948;-41
2021/05/22 00:24:58;;;;;;;;;;;;;;;9.33;79.52;99366.66;3456354;28;19964;-45
2021/05/22 00:26:39;;;;;;;;;;;;;;;9.30;78.86;99361.44;3455163;28;20575;-45
2021/05/22 00:28:20;;;;;;;;;;;;;;;9.29;78.93;99364.88;3455579;28;19999;-41
2021/05/22 00:30:03;;;;;;;;;;;;;;;9.30;78.74;99369.22;3454935;28;19999;-46
2021/05/22 00:31:44;;;;;;;;;;;;;;;9.30;78.27;99370.94;3455741;28;19933;-46
2021/05/22 00:33:25;;;;;;;;;;;;;;;9.32;77.91;99366.66;3454312;28;20518;-45
2021/05/22 00:35:07;;;;;;;;;;;;;;;9.32;77.68;99372.69;3455884;28;20402;-46
2021/05/22 00:36:48;;;;;;;;;;;;;;;9.34;77.34;99375.28;3454420;28;19929;-46
2021/05/22 00:38:29;;;;;;;;;;;;;;;9.34;77.52;99370.97;3455142;28;19930;-45
2021/05/22 00:40:11;;;;;;;;;;;;;;;9.37;78.08;99369.31;3454959;28;20052;-41
2021/05/22 00:41:53;;;;;;;;;;;;;;;9.35;78.31;99367.56;3455711;28;19979;-41
2021/05/22 00:43:34;;;;;;;;;;;;;;;9.36;78.51;99363.25;3455868;28;20422;-41
2021/05/22 00:45:16;;;;;;;;;;;;;;;9.37;78.78;99365.00;3454537;28;20406;-42
2021/05/22 00:46:57;;;;;;;;;;;;;;;9.35;78.65;99366.69;3455792;28;19985;-45
2021/05/22 00:48:39;;;;;;;;;;;;;;;9.33;78.48;99363.22;3454014;28;19969;-45
2021/05/22 00:50:21;;;;;;;;;;;;;;;9.30;78.14;99363.16;3457698;28;19929;-45
2021/05/22 00:52:02;;;;;;;;;;;;;;;9.28;78.33;99367.47;3454529;28;19983;-42
2021/05/22 00:53:44;;;;;;;;;;;;;;;9.27;78.37;99365.72;3456484;28;20387;-46
2021/05/22 00:55:25;;;;;;;;;;;;;;;9.26;78.70;99363.97;3455592;28;19976;-41
2021/05/22 00:57:06;;;;;;;;;;;;;;;9.24;78.47;99361.38;3455526;28;19937;-41
2021/05/22 00:58:48;;;;;;;;;;;;;;;9.20;78.67;99359.56;3456597;28;19930;-47
2021/05/22 01:00:32;;;;;;;;;;;;;;;9.21;78.78;99360.47;3454974;28;19984;-41
2021/05/22 01:02:20;;;;;;;;;;;;;;;9.19;78.81;99354.38;3455656;28;19934;-41
2021/05/22 01:04:01;;;;;;;;;;;;;;;9.18;78.86;99360.41;3455634;28;19980;-41
2021/05/22 01:05:43;;;;;;;;;;;;;;;9.16;79.15;99357.78;3454662;28;19976;-41
2021/05/22 01:07:24;;;;;;;;;;;;;;;9.13;78.98;99355.16;3455217;28;19956;-42
2021/05/22 01:09:08;;;;;;;;;;;;;;;9.09;79.34;99362.00;3453963;28;19929;-41
2021/05/22 01:10:55;;;;;;;;;;;;;;;9.07;79.15;99365.44;3455320;28;19929;-41
2021/05/22 01:12:39;;;;;;;;;;;;;;;9.07;78.93;99368.88;3454517;28;20414;-42
2021/05/22 01:14:22;;;;;;;;;;;;;;;9.05;79.04;99368.00;3453358;28;19976;-45
2021/05/22 01:16:04;;;;;;;;;;;;;;;9.02;78.81;99360.19;3455215;28;20268;-45
2021/05/22 01:17:47;;;;;;;;;;;;;;;9.01;79.06;99362.75;3454188;28;19960;-46
2021/05/22 01:19:36;;;;;;;;;;;;;;;9.00;78.81;99359.28;3456861;28;19973;-46
2021/05/22 01:21:19;;;;;;;;;;;;;;;8.99;79.09;99362.72;3455851;28;20429;-46
2021/05/22 01:23:02;;;;;;;;;;;;;;;8.99;78.88;99370.47;3456539;28;19936;-45
2021/05/22 01:24:48;;;;;;;;;;;;;;;8.98;79.14;99369.63;3457568;28;20394;-45
2021/05/22 01:26:31;;;;;;;;;;;;;;;8.96;79.05;99370.44;3456392;28;19936;-45
2021/05/22 01:28:12;;;;;;;;;;;;;;;8.95;79.10;99373.88;3457526;28;20461;-45
2021/05/22 01:29:54;;;;;;;;;;;;;;;8.95;79.06;99374.72;3457600;28;20311;-46
2021/05/22 01:31:35;;;;;;;;;;;;;;;8.94;77.93;99374.69;3458417;28;20022;-46
2021/05/22 01:33:18;;;;;;;;;;;;;;;8.93;77.71;99376.44;3457048;28;20322;-41
2021/05/22 01:35:00;;;;;;;;;;;;;;;8.94;77.65;99378.19;3457642;28;19972;-41
2021/05/22 01:36:41;;;;;;;;;;;;;;;8.95;77.39;99373.88;3457839;28;19952;-44
2021/05/22 01:38:22;;;;;;;;;;;;;;;8.96;77.21;99379.06;3456098;28;19964;-41
2021/05/22 01:40:04;;;;;;;;;;;;;;;8.97;77.19;99375.63;3457677;28;19960;-41
2021/05/22 01:41:46;;;;;;;;;;;;;;;8.97;77.59;99382.53;3456371;28;19929;-41
2021/05/22 01:43:27;;;;;;;;;;;;;;;8.97;77.89;99382.53;3456765;28;20394;-41
2021/05/22 01:45:10;;;;;;;;;;;;;;;8.97;78.07;99390.28;3456448;28;19936;-41
2021/05/22 01:46:52;;;;;;;;;;;;;;;8.96;77.84;99383.38;3457523;28;20417;-41
2021/05/22 01:48:34;;;;;;;;;;;;;;;8.96;78.05;99381.66;3457884;28;19934;-45
2021/05/22 01:50:16;;;;;;;;;;;;;;;8.96;78.70;99386.84;3456551;28;19929;-41
2021/05/22 01:51:57;;;;;;;;;;;;;;;8.96;78.47;99375.63;3457267;28;19929;-41
2021/05/22 01:53:40;;;;;;;;;;;;;;;8.97;78.32;99388.56;3456317;28;19930;-41
2021/05/22 01:55:22;;;;;;;;;;;;;;;8.97;78.12;99387.69;3458325;28;20295;-45
2021/05/22 01:57:04;;;;;;;;;;;;;;;8.96;78.87;99378.22;3456960;28;19973;-45
2021/05/22 01:58:46;;;;;;;;;;;;;;;8.96;78.81;99385.97;3456306;28;20338;-46
2021/05/22 02:00:27;;;;;;;;;;;;;;;8.94;78.53;99382.47;3457198;28;19929;-46
2021/05/22 02:02:08;;;;;;;;;;;;;;;8.94;78.22;99391.13;3456030;28;19976;-45
2021/05/22 02:03:50;;;;;;;;;;;;;;;8.92;78.41;99386.75;3457507;28;20523;-46
2021/05/22 02:05:32;;;;;;;;;;;;;;;8.91;78.41;99385.03;3456038;28;19969;-46
2021/05/22 02:07:16;;;;;;;;;;;;;;;8.91;79.11;99388.47;3456307;28;20446;-46
2021/05/22 02:09:00;;;;;;;;;;;;;;;8.92;79.24;99392.81;3456168;28;20453;-46
2021/05/22 02:10:41;;;;;;;;;;;;;;;8.94;78.98;99388.53;3456305;28;19960;-46
2021/05/22 02:12:23;;;;;;;;;;;;;;;8.95;78.02;99384.22;3457026;28;19930;-45
2021/05/22 02:14:06;;;;;;;;;;;;;;;8.96;77.46;99388.56;3454179;28;20438;-45
2021/05/22 02:15:50;;;;;;;;;;;;;;;8.98;77.67;99389.44;3457037;28;19992;-46
2021/05/22 02:17:31;;;;;;;;;;;;;;;9.00;77.47;99387.75;3456461;28;19967;-45
2021/05/22 02:19:14;;;;;;;;;;;;;;;9.02;77.17;99383.47;3456103;28;19929;-46
2021/05/22 02:20:57;;;;;;;;;;;;;;;9.05;77.41;99380.94;3456272;28;19972;-41
2021/05/22 02:22:39;;;;;;;;;;;;;;;9.08;77.13;99391.34;3457450;28;19933;-46
2021/05/22 02:24:24;;;;;;;;;;;;;;;9.11;76.79;99382.72;3457317;28;19973;-41
2021/05/22 02:26:07;;;;;;;;;;;;;;;9.12;77.14;99392.25;3455565;28;19929;-41
2021/05/22 02:27:49;;;;;;;;;;;;;;;9.16;77.41;99394.03;3457928;28;19975;-41
2021/05/22 02:29:33;;;;;;;;;;;;;;;9.21;77.07;99388.94;3456270;28;20423;-46
2021/05/22 02:31:16;;;;;;;;;;;;;;;9.25;76.43;99396.75;3455375;28;19983;-46
2021/05/22 02:32:57;;;;;;;;;;;;;;;9.29;76.03;99403.69;3456719;28;19929;-45
2021/05/22 02:34:42;;;;;;;;;;;;;;;9.33;75.96;99397.72;3457039;28;19930;-45
2021/05/22 02:36:23;;;;;;;;;;;;;;;9.35;75.16;99397.75;3456888;28;19929;-46
2021/05/22 02:38:05;;;;;;;;;;;;;;;9.37;74.29;99401.22;3455755;28;19981;-46
2021/05/22 02:39:49;;;;;;;;;;;;;;;9.39;74.50;99399.53;3456326;28;19980;-46
2021/05/22 02:41:31;;;;;;;;;;;;;;;9.42;73.73;99403.88;3456219;28;19971;-46
2021/05/22 02:43:13;;;;;;;;;;;;;;;9.45;73.46;99407.44;3456445;28;19929;-47
2021/05/22 02:44:54;;;;;;;;;;;;;;;9.49;72.75;99403.16;3455871;28;19983;-46
2021/05/22 02:46:37;;;;;;;;;;;;;;;9.54;72.08;99407.56;3455845;28;20017;-42
2021/05/22 02:48:19;;;;;;;;;;;;;;;9.60;71.87;99405.91;3456684;28;19929;-42
2021/05/22 02:50:03;;;;;;;;;;;;;;;9.65;72.42;99402.50;3455573;28;20434;-42
2021/05/22 02:51:46;;;;;;;;;;;;;;;9.72;72.82;99406.06;3455987;28;20126;-42
2021/05/22 02:53:30;;;;;;;;;;;;;;;9.78;72.86;99406.13;3456681;28;19965;-41
2021/05/22 02:55:12;;;;;;;;;;;;;;;9.84;72.69;99413.09;3456834;28;19929;-41
2021/05/22 02:56:54;;;;;;;;;;;;;;;9.88;72.41;99415.75;3456770;28;20477;-42
2021/05/22 02:58:37;;;;;;;;;;;;;;;9.96;72.67;99414.97;3455802;28;19936;-46
2021/05/22 03:00:19;;;;;;;;;;;;;;;10.01;72.51;99421.94;3456776;28;19979;-45
2021/05/22 03:02:01;;;;;;;;;;;;;;;10.07;72.14;99428.91;3454457;28;19972;-46
2021/05/22 03:03:43;;;;;;;;;;;;;;;10.13;71.83;99425.53;3455796;28;19929;-46
2021/05/22 03:05:24;;;;;;;;;;;;;;;10.19;72.55;99425.59;3455272;28;20430;-46
2021/05/22 03:07:05;;;;;;;;;;;;;;;10.25;71.89;99430.88;3456470;28;19930;-46
2021/05/22 03:08:48;;;;;;;;;;;;;;;10.31;72.19;99428.31;3456702;28;20015;-42
2021/05/22 03:10:29;;;;;;;;;;;;;;;10.38;71.50;99426.69;3455296;28;20358;-41
2021/05/22 03:12:14;;;;;;;;;;;;;;;10.45;70.81;99429.34;3456578;28;20024;-42
2021/05/22 03:13:56;;;;;;;;;;;;;;;10.52;70.12;99424.22;3453593;28;19936;-41
2021/05/22 03:15:37;;;;;;;;;;;;;;;10.60;70.24;99426.03;3455732;28;19929;-42
2021/05/22 03:17:18;;;;;;;;;;;;;;;10.70;71.30;99431.31;3456046;28;20012;-42
2021/05/22 03:19:00;;;;;;;;;;;;;;;10.79;71.34;99441.75;3456442;28;19929;-41
2021/05/22 03:20:41;;;;;;;;;;;;;;;10.92;70.89;99440.13;3456771;28;19968;-41
2021/05/22 03:22:23;;;;;;;;;;;;;;;11.04;70.74;99442.84;3456444;28;20306;-42
2021/05/22 03:24:05;;;;;;;;;;;;;;;11.15;69.79;99440.34;3456215;28;19933;-42
2021/05/22 03:25:46;;;;;;;;;;;;;;;11.23;69.36;99436.94;3456605;28;20023;-42
2021/05/22 03:27:27;;;;;;;;;;;;;;;11.33;69.28;99435.31;3457152;28;19929;-46
2021/05/22 03:29:09;;;;;;;;;;;;;;;11.42;69.64;99437.09;3456103;28;19976;-45
2021/05/22 03:30:51;;;;;;;;;;;;;;;11.52;69.24;99433.72;3455043;28;19929;-46
2021/05/22 03:32:32;;;;;;;;;;;;;;;11.61;68.77;99433.75;3456576;28;19929;-47
2021/05/22 03:34:13;;;;;;;;;;;;;;;11.71;68.46;99434.69;3455545;28;19984;-42
2021/05/22 03:35:54;;;;;;;;;;;;;;;11.82;68.57;99445.13;3456890;28;19941;-42
2021/05/22 03:37:36;;;;;;;;;;;;;;;11.93;68.12;99440.84;3455099;28;19929;-45
2021/05/22 03:39:18;;;;;;;;;;;;;;;12.05;68.05;99439.13;3454723;28;20372;-46
2021/05/22 03:40:59;;;;;;;;;;;;;;;12.17;67.30;99441.78;3455849;28;20019;-46
2021/05/22 03:42:40;;;;;;;;;;;;;;;12.26;67.27;99444.44;3454940;28;19934;-46
2021/05/22 03:44:22;;;;;;;;;;;;;;;12.35;66.93;99444.47;3456124;28;19937;-46
2021/05/22 03:46:03;;;;;;;;;;;;;;;12.46;66.94;99441.88;3455266;28;20366;-46
2021/05/22 03:47:45;;;;;;;;;;;;;;;12.57;67.07;99447.09;3456142;28;20529;-47
2021/05/22 03:49:28;;;;;;;;;;;;;;;12.68;66.44;99439.31;3454913;28;19940;-47
2021/05/22 03:51:09;;;;;;;;;;;;;;;12.77;65.89;99441.94;3456624;28;19971;-46
2021/05/22 03:52:50;;;;;;;;;;;;;;;12.87;66.02;99443.66;3455731;28;19972;-46
2021/05/22 03:54:31;;;;;;;;;;;;;;;12.95;65.96;99447.19;3454935;28;20254;-46
2021/05/22 03:56:12;;;;;;;;;;;;;;;13.03;65.74;99441.97;3456372;28;20391;-45
2021/05/22 03:57:53;;;;;;;;;;;;;;;13.11;65.36;99445.44;3454936;28;19929;-42
2021/05/22 03:59:35;;;;;;;;;;;;;;;13.18;64.56;99448.03;3456353;28;19973;-42
2021/05/22 04:01:17;;;;;;;;;;;;;;;13.25;65.17;99450.66;3456074;28;19976;-42
2021/05/22 04:02:58;;;;;;;;;;;;;;;13.35;64.64;99458.47;3455231;28;19941;-42
2021/05/22 04:04:39;;;;;;;;;;;;;;;13.42;64.23;99454.97;3455586;28;20453;-42
2021/05/22 04:06:20;;;;;;;;;;;;;;;13.51;64.50;99461.06;3454713;28;19977;-42
2021/05/22 04:08:02;;;;;;;;;;;;;;;13.61;64.14;99468.84;3455859;28;20022;-42
2021/05/22 04:09:43;;;;;;;;;;;;;;;13.70;63.75;99467.06;3454894;28;19930;-42
2021/05/22 04:11:24;;;;;;;;;;;;;;;13.85;62.79;99465.31;3455777;28;20405;-42
2021/05/22 04:13:05;;;;;;;;;;;;;;;13.98;63.40;99477.44;3454648;28;19991;-42
2021/05/22 04:14:47;;;;;;;;;;;;;;;14.09;63.61;99473.06;3455634;28;20382;-42
2021/05/22 04:16:28;;;;;;;;;;;;;;;14.19;62.30;99471.28;3454693;28;19929;-42
2021/05/22 04:18:09;;;;;;;;;;;;;;;14.28;62.08;99468.63;3456261;28;19972;-42
2021/05/22 04:19:51;;;;;;;;;;;;;;;14.36;61.73;99471.25;3454685;28;20453;-42
2021/05/22 04:21:32;;;;;;;;;;;;;;;14.45;61.33;99470.34;3456253;28;19973;-43
2021/05/22 04:23:13;;;;;;;;;;;;;;;14.53;61.11;99476.34;3455981;28;19929;-43
2021/05/22 04:24:54;;;;;;;;;;;;;;;14.62;60.83;99468.50;3454320;28;19933;-42
2021/05/22 04:26:36;;;;;;;;;;;;;;;14.72;61.20;99473.66;3456804;28;19929;-42
2021/05/22 04:28:17;;;;;;;;;;;;;;;14.81;60.34;99471.81;3455319;28;19929;-47
2021/05/22 04:29:59;;;;;;;;;;;;;;;14.88;59.84;99472.66;3456110;28;20017;-47
2021/05/22 04:31:40;;;;;;;;;;;;;;;14.95;58.87;99469.13;3455595;28;20020;-48
2021/05/22 04:33:23;;;;;;;;;;;;;;;15.02;59.24;99468.19;3452216;28;20468;-46
2021/05/22 04:35:05;;;;;;;;;;;;;;;15.07;58.56;99467.31;3456383;28;19930;-46
2021/05/22 04:36:46;;;;;;;;;;;;;;;15.13;58.38;99462.88;3456515;28;20030;-43
2021/05/22 04:38:27;;;;;;;;;;;;;;;15.20;58.26;99467.19;3455092;28;20318;-42
2021/05/22 04:40:09;;;;;;;;;;;;;;;15.27;58.13;99470.59;3454978;28;20391;-43
2021/05/22 04:41:50;;;;;;;;;;;;;;;15.34;58.20;99467.06;3455181;28;19933;-43
2021/05/22 04:43:31;;;;;;;;;;;;;;;15.45;59.04;99466.97;3455345;28;20687;-42
2021/05/22 04:45:14;;;;;;;;;;;;;;;15.55;57.23;99465.13;3455972;28;20300;-43
2021/05/22 04:46:55;;;;;;;;;;;;;;;15.66;57.11;99465.06;3455631;28;19934;-46
2021/05/22 04:48:36;;;;;;;;;;;;;;;15.77;58.25;99464.06;3455745;28;19965;-46
2021/05/22 04:50:18;;;;;;;;;;;;;;;15.88;55.94;99463.94;3455022;28;20424;-43
2021/05/22 04:51:59;;;;;;;;;;;;;;;15.98;56.38;99470.81;3454797;28;19930;-43
2021/05/22 04:53:40;;;;;;;;;;;;;;;16.10;55.94;99479.38;3453478;28;19929;-42
2021/05/22 04:55:21;;;;;;;;;;;;;;;16.17;55.76;99479.28;3455553;28;19929;-46
2021/05/22 04:57:02;;;;;;;;;;;;;;;16.27;55.69;99477.44;3454265;28;19929;-43
2021/05/22 04:58:44;;;;;;;;;;;;;;;16.37;57.20;99470.34;3456184;28;19944;-47
2021/05/22 05:00:26;;;;;;;;;;;;;;;16.51;56.97;99476.25;3456004;28;19972;-46
2021/05/22 05:02:07;;;;;;;;;;;;;;;16.64;55.56;99473.47;3454806;28;20343;-46
2021/05/22 05:03:48;;;;;;;;;;;;;;;16.72;54.08;99482.94;3454172;28;19930;-46
2021/05/22 05:05:29;;;;;;;;;;;;;;;16.79;55.02;99475.88;3455864;28;19973;-43
2021/05/22 05:07:10;;;;;;;;;;;;;;;16.89;54.85;99479.25;3455074;28;20047;-43
2021/05/22 05:08:52;;;;;;;;;;;;;;;16.95;52.09;99471.28;3454548;28;19930;-47
2021/05/22 05:10:33;;;;;;;;;;;;;;;16.99;53.07;99477.31;3455632;28;19936;-46
2021/05/22 05:12:15;;;;;;;;;;;;;;;17.06;53.23;99477.22;3454034;28;20066;-46
2021/05/22 05:13:56;;;;;;;;;;;;;;;17.11;53.15;99474.50;3454426;28;19936;-43
2021/05/22 05:15:38;;;;;;;;;;;;;;;17.15;52.90;99478.84;3455401;28;19996;-46
2021/05/22 05:17:19;;;;;;;;;;;;;;;17.20;52.64;99476.13;3455918;28;20026;-46
2021/05/22 05:19:00;;;;;;;;;;;;;;;17.23;51.24;99478.69;3455621;28;19929;-43
2021/05/22 05:20:41;;;;;;;;;;;;;;;17.24;51.17;99476.06;3455522;28;20019;-43
2021/05/22 05:22:22;;;;;;;;;;;;;;;17.24;51.33;99475.19;3455324;28;19944;-44
2021/05/22 05:24:04;;;;;;;;;;;;;;;17.25;51.40;99484.78;3455706;28;20350;-43
2021/05/22 05:25:45;;;;;;;;;;;;;;;17.29;51.66;99474.22;3454842;28;19933;-43
2021/05/22 05:27:26;;;;;;;;;;;;;;;17.37;51.49;99470.59;3454798;28;19979;-46
2021/05/22 05:29:07;;;;;;;;;;;;;;;17.46;51.74;99478.31;3455818;28;20382;-46
2021/05/22 05:30:49;;;;;;;;;;;;;;;17.53;50.88;99481.69;3455328;28;19929;-48
2021/05/22 05:32:30;;;;;;;;;;;;;;;17.57;49.86;99481.63;3447002;28;20015;-47
2021/05/22 05:34:12;;;;;;;;;;;;;;;17.65;49.47;99481.47;3447977;28;20019;-47
2021/05/22 05:35:54;;;;;;;;;;;;;;;17.70;48.61;99463.88;3454157;28;19936;-44
2021/05/22 05:37:35;;;;;;;;;;;;;;;17.76;48.05;99471.63;3455604;28;19991;-43
2021/05/22 05:39:17;;;;;;;;;;;;;;;17.84;48.99;99476.78;3455876;28;19929;-43
2021/05/22 05:40:58;;;;;;;;;;;;;;;17.89;49.24;99480.19;3454255;28;20379;-43
2021/05/22 05:42:39;;;;;;;;;;;;;;;17.90;47.89;99492.41;3454263;28;19971;-44
2021/05/22 05:44:21;;;;;;;;;;;;;;;17.89;47.49;99481.94;3454087;28;20020;-47
2021/05/22 05:46:02;;;;;;;;;;;;;;;17.92;48.41;99487.97;3455533;28;20493;-47
2021/05/22 05:47:44;;;;;;;;;;;;;;;17.99;49.22;99489.59;3453761;28;19984;-46
2021/05/22 05:49:28;;;;;;;;;;;;;;;18.13;49.31;99498.97;3454499;28;19929;-47
2021/05/22 05:51:09;;;;;;;;;;;;;;;18.23;49.40;99497.91;3455305;28;19929;-46
2021/05/22 05:52:50;;;;;;;;;;;;;;;18.36;48.86;99501.97;3456031;28;19929;-45
2021/05/22 05:54:32;;;;;;;;;;;;;;;18.50;48.52;99506.09;3455425;28;20012;-45
2021/05/22 05:56:13;;;;;;;;;;;;;;;18.57;46.99;99513.78;3454901;28;19983;-47
2021/05/22 05:57:56;;;;;;;;;;;;;;;18.65;47.31;99512.75;3455481;28;20370;-47
2021/05/22 05:59:37;;;;;;;;;;;;;;;18.77;46.82;99517.75;3453639;28;20379;-47
2021/05/22 06:01:19;;;;;;;;;;;;;;;18.77;45.29;99516.00;3455337;28;19933;-46
2021/05/22 06:03:00;;;;;;;;;;;;;;;18.82;44.81;99513.25;3453553;28;19973;-46
2021/05/22 06:04:41;;;;;;;;;;;;;;;18.80;45.48;99513.28;3455018;28;19937;-43
2021/05/22 06:06:22;;;;;;;;;;;;;;;18.80;46.56;99515.06;3457090;28;19982;-49
2021/05/22 06:08:03;;;;;;;;;;;;;;;18.83;47.73;99512.38;3456126;28;19977;-46
2021/05/22 06:09:46;;;;;;;;;;;;;;;18.88;45.49;99514.94;3457652;28;20561;-47
2021/05/22 06:11:30;;;;;;;;;;;;;;;18.91;46.76;99515.72;3457838;28;19983;-42
2021/05/22 06:13:11;;;;;;;;;;;;;;;19.01;46.86;99511.09;3455979;28;20038;-43
2021/05/22 06:14:55;;;;;;;;;;;;;;;19.12;45.33;99516.97;3457145;28;19980;-46
2021/05/22 06:16:37;;;;;;;;;;;;;;;19.22;45.85;99524.66;3456766;28;19952;-44
2021/05/22 06:18:18;;;;;;;;;;;;;;;19.25;44.47;99528.06;3457410;28;19937;-47
2021/05/22 06:19:59;;;;;;;;;;;;;;;19.26;43.92;99534.19;3456524;28;19964;-43
2021/05/22 06:21:40;;;;;;;;;;;;;;;19.30;44.66;99530.56;3456894;28;20401;-46
2021/05/22 06:23:22;;;;;;;;;;;;;;;19.34;45.08;99534.88;3456853;28;20003;-43
2021/05/22 06:25:03;;;;;;;;;;;;;;;19.49;46.54;99536.25;3456306;28;19930;-46
2021/05/22 06:26:44;;;;;;;;;;;;;;;19.64;45.13;99541.16;3450740;28;19980;-46
2021/05/22 06:28:26;;;;;;;;;;;;;;;19.82;45.24;99538.97;3457511;28;20361;-44
2021/05/22 06:30:08;;;;;;;;;;;;;;;19.88;43.30;99538.78;3457033;28;20310;-47
2021/05/22 06:31:50;;;;;;;;;;;;;;;19.97;43.40;99549.09;3457870;28;20441;-44
2021/05/22 06:33:32;;;;;;;;;;;;;;;19.94;41.55;99551.81;3457913;28;19957;-44
2021/05/22 06:35:13;;;;;;;;;;;;;;;19.99;41.21;99549.03;3456590;28;19996;-43
2021/05/22 06:36:54;;;;;;;;;;;;;;;20.14;42.54;99546.84;3456266;28;19929;-47
2021/05/22 06:38:35;;;;;;;;;;;;;;;20.20;40.63;99545.84;3456932;28;19940;-47
2021/05/22 06:40:18;;;;;;;;;;;;;;;20.24;40.06;99542.22;3457619;28;19929;-49
2021/05/22 06:42:00;;;;;;;;;;;;;;;20.32;42.24;99541.97;3456672;28;20295;-45
2021/05/22 06:43:41;;;;;;;;;;;;;;;20.41;39.41;99541.75;3456288;28;19929;-45
2021/05/22 06:45:25;;;;;;;;;;;;;;;20.47;40.66;99546.81;3456797;28;19984;-46
2021/05/22 06:47:07;;;;;;;;;;;;;;;20.48;40.33;99545.03;3456284;28;20014;-45
2021/05/22 06:48:48;;;;;;;;;;;;;;;20.47;39.72;99541.56;3457549;28;19929;-44
2021/05/22 06:50:29;;;;;;;;;;;;;;;20.50;41.27;99544.09;3443259;28;19991;-43
2021/05/22 06:52:10;;;;;;;;;;;;;;;20.44;39.17;99543.41;3452627;28;19929;-43
2021/05/22 06:53:51;;;;;;;;;;;;;;;20.43;41.17;99544.31;3457246;28;19952;-43
2021/05/22 06:55:33;;;;;;;;;;;;;;;20.47;38.98;99541.56;3457289;28;19972;-49
2021/05/22 06:57:16;;;;;;;;;;;;;;;20.53;40.49;99548.41;3457887;28;19936;-43
2021/05/22 06:58:57;;;;;;;;;;;;;;;20.72;40.80;99537.34;3457164;28;19909;-43
2021/05/22 07:02:38;;;;;;;;;;;;;;;20.82;38.72;99541.47;3443757;28;19968;-43
2021/05/22 07:04:19;;;;;;;;;;;;;;;20.82;37.58;99536.19;3456183;28;19937;-46
2021/05/22 07:06:02;;;;;;;;;;;;;;;20.84;38.92;99534.38;3457300;28;19953;-43
2021/05/22 07:07:43;;;;;;;;;;;;;;;20.87;38.95;99534.25;3456437;28;19972;-43
2021/05/22 07:09:24;;;;;;;;;;;;;;;20.90;38.23;99531.53;3455940;28;19929;-46
2021/05/22 07:11:05;;;;;;;;;;;;;;;20.86;37.74;99537.81;3457560;28;20307;-44
2021/05/22 07:12:47;;;;;;;;;;;;;;;20.86;37.39;99532.53;3457172;28;20409;-46
2021/05/22 07:14:29;;;;;;;;;;;;;;;20.89;37.71;99528.03;3454702;28;19930;-45
2021/05/22 07:16:10;;;;;;;;;;;;;;;20.92;37.51;99531.47;3456277;28;20411;-43
2021/05/22 07:17:52;;;;;;;;;;;;;;;20.94;38.04;99527.00;3456994;28;19995;-43
2021/05/22 07:19:33;;;;;;;;;;;;;;;21.00;37.49;99527.69;3457645;28;19933;-43
2021/05/22 07:21:15;;;;;;;;;;;;;;;21.00;37.21;99525.06;3455700;28;19975;-45
2021/05/22 07:22:57;;;;;;;;;;;;;;;21.08;37.66;99523.06;3457305;28;19930;-47
2021/05/22 07:24:38;;;;;;;;;;;;;;;21.18;37.40;99531.50;3456687;28;19948;-45
2021/05/22 07:26:19;;;;;;;;;;;;;;;21.23;37.32;99519.03;3457221;28;19929;-45
2021/05/22 07:28:00;;;;;;;;;;;;;;;21.30;38.79;99525.00;3456165;28;19976;-45
2021/05/22 07:29:42;;;;;;;;;;;;;;;21.27;37.24;99519.81;3455583;28;19934;-44
2021/05/22 07:31:23;;;;;;;;;;;;;;;21.19;37.10;99521.81;3456867;28;20376;-45
2021/05/22 07:33:05;;;;;;;;;;;;;;;21.19;37.77;99514.78;3455317;28;20359;-44
2021/05/22 07:34:46;;;;;;;;;;;;;;;21.29;38.95;99517.97;3457596;28;19977;-45
2021/05/22 07:36:27;;;;;;;;;;;;;;;21.45;38.57;99507.78;3455285;28;20465;-47
2021/05/22 07:38:08;;;;;;;;;;;;;;;21.45;37.86;99515.69;3456518;28;19936;-47
2021/05/22 07:39:50;;;;;;;;;;;;;;;21.40;37.97;99513.22;3455429;28;20384;-47
2021/05/22 07:41:31;;;;;;;;;;;;;;;21.41;37.74;99514.06;3457284;28;20395;-48
2021/05/22 07:43:12;;;;;;;;;;;;;;;21.48;38.99;99515.59;3456798;28;20170;-45
2021/05/22 07:44:54;;;;;;;;;;;;;;;21.56;38.09;99518.84;3455491;28;20043;-46
2021/05/22 07:46:36;;;;;;;;;;;;;;;21.59;37.56;99516.09;3457285;28;19937;-46
2021/05/22 07:48:17;;;;;;;;;;;;;;;21.70;37.47;99518.41;3455304;28;19935;-46
2021/05/22 07:49:59;;;;;;;;;;;;;;;21.77;36.52;99508.47;3455890;28;19929;-45
2021/05/22 07:51:41;;;;;;;;;;;;;;;21.77;37.88;99512.00;3455687;28;19937;-45
2021/05/22 07:53:22;;;;;;;;;;;;;;;21.87;37.58;99501.97;3455460;28;19937;-46
2021/05/22 07:55:04;;;;;;;;;;;;;;;21.92;38.32;99504.47;3456481;28;19937;-46
2021/05/22 07:56:45;;;;;;;;;;;;;;;21.99;38.42;99514.75;3456184;28;19933;-46
2021/05/22 07:58:26;;;;;;;;;;;;;;;21.94;37.92;99508.75;3455995;28;19979;-45
2021/05/22 08:00:08;;;;;;;;;;;;;;;21.81;37.30;99507.47;3454636;28;20466;-44
2021/05/22 08:01:49;;;;;;;;;;;;;;;21.55;37.71;99506.56;3457278;28;19999;-47
2021/05/22 08:03:31;;;;;;;;;;;;;;;21.47;37.84;99516.50;3455383;28;19929;-46
2021/05/22 08:05:27;;;;;;;;;;;;;;;21.39;38.26;99505.34;3455680;28;19929;-47
2021/05/22 08:07:08;;;;;;;;;;;;;;;21.31;37.61;99508.22;3455896;28;19973;-47
2021/05/22 08:08:50;;;;;;;;;;;;;;;21.37;38.05;99500.13;3454873;28;19929;-47
2021/05/22 08:10:31;;;;;;;;;;;;;;;21.51;38.62;99507.59;3455771;28;20398;-44
2021/05/22 08:12:13;;;;;;;;;;;;;;;21.58;38.67;99500.31;3455923;28;19929;-45
2021/05/22 08:13:54;;;;;;;;;;;;;;;21.73;39.30;99499.81;3454840;28;19929;-44
2021/05/22 08:15:36;;;;;;;;;;;;;;;21.80;37.82;99506.59;3455447;28;20027;-45
2021/05/22 08:17:17;;;;;;;;;;;;;;;21.98;37.37;99506.88;3456161;28;19937;-45
2021/05/22 08:18:59;;;;;;;;;;;;;;;22.10;35.60;99498.50;3456239;28;20395;-47
2021/05/22 08:20:40;;;;;;;;;;;;;;;22.27;37.32;99494.41;3454908;28;20014;-47
2021/05/22 08:22:22;;;;;;;;;;;;;;;22.39;37.03;99502.72;3455654;28;20445;-46
2021/05/22 08:24:03;;;;;;;;;;;;;;;22.45;37.40;99495.47;3454304;28;19929;-45
2021/05/22 08:25:44;;;;;;;;;;;;;;;22.49;34.91;99499.75;3457056;28;19980;-46
2021/05/22 08:27:46;;;;;;;;;;;;;;;22.48;33.66;99508.63;3454943;28;19933;-46
2021/05/22 08:29:28;;;;;;;;;;;;;;;22.45;33.83;99496.31;3454784;28;19995;-45
2021/05/22 08:31:11;;;;;;;;;;;;;;;22.45;35.18;99506.91;3455913;28;19930;-46
2021/05/22 08:32:52;;;;;;;;;;;;;;;22.52;36.01;99505.78;3454316;28;19996;-45
2021/05/22 08:34:39;;;;;;;;;;;;;;;22.34;33.62;99499.38;3454800;28;19929;-48
2021/05/22 08:36:20;;;;;;;;;;;;;;;22.13;34.40;99484.31;3454696;28;20016;-49
2021/05/22 08:38:01;;;;;;;;;;;;;;;22.09;34.86;99482.69;3454713;28;19936;-44
2021/05/22 08:39:44;;;;;;;;;;;;;;;22.17;35.27;99483.28;3456399;28;19929;-47
2021/05/22 08:41:25;;;;;;;;;;;;;;;22.34;36.88;99483.53;3454030;28;20406;-47
2021/05/22 08:43:06;;;;;;;;;;;;;;;22.55;36.89;99467.81;3455998;28;19929;-45
2021/05/22 08:44:48;;;;;;;;;;;;;;;22.65;33.79;99469.16;3454258;28;20374;-41
2021/05/22 08:46:30;;;;;;;;;;;;;;;22.64;34.11;99467.44;3454458;28;19972;-45
2021/05/22 08:48:12;;;;;;;;;;;;;;;22.50;35.77;99475.06;3455564;28;19972;-46
2021/05/22 08:49:54;;;;;;;;;;;;;;;22.40;35.57;99471.84;3454366;28;19929;-46
2021/05/22 08:51:35;;;;;;;;;;;;;;;22.27;35.61;99470.59;3455266;28;20003;-46
2021/05/22 08:53:16;;;;;;;;;;;;;;;22.38;36.56;99469.25;3454327;28;19933;-44
2021/05/22 08:54:57;;;;;;;;;;;;;;;22.44;33.55;99465.50;3455370;28;19933;-44